Time;durP1;ratioP1;P1;durP2;ratioP2;P2;SDS_P1;SDS_P2;PMS_P1;PMS_P2;Temp;Humidity;BMP_temperature;BMP_pressure;BME280_temperature;BME280_humidity;BME280_pressure;Samples;Min_cycle;Max_cycle;Signal;HPM_P1;HPM_P2
2023/04/01 00:02:20;;;;;;;9.10;7.05;;;10.20;99.90;;;;;;5091839;28;20039;-59
2023/04/01 00:04:45;;;;;;;10.13;6.90;;;10.40;99.90;;;;;;5091726;28;20047;-58
2023/04/01 00:07:12;;;;;;;7.70;6.72;;;10.30;99.90;;;;;;5091703;28;20036;-59
2023/04/01 00:09:37;;;;;;;9.50;7.13;;;10.40;99.90;;;;;;5083285;28;20043;-59
2023/04/01 00:12:03;;;;;;;10.10;7.18;;;10.30;99.90;;;;;;5091685;28;20389;-59
2023/04/01 00:14:29;;;;;;;8.75;6.75;;;10.40;99.90;;;;;;5091555;28;20482;-59
2023/04/01 00:16:55;;;;;;;13.63;7.68;;;10.20;99.90;;;;;;5091478;28;20044;-59
2023/04/01 00:19:21;;;;;;;10.93;7.15;;;10.20;99.90;;;;;;5091593;28;20120;-59
2023/04/01 00:21:47;;;;;;;8.93;7.10;;;10.20;99.90;;;;;;5091589;28;20123;-59
2023/04/01 00:24:13;;;;;;;10.45;7.68;;;10.40;99.90;;;;;;5091669;28;20040;-59
2023/04/01 00:26:42;;;;;;;8.00;6.97;;;10.40;99.90;;;;;;5091959;28;20048;-59
2023/04/01 00:29:07;;;;;;;10.07;7.43;;;10.30;99.90;;;;;;5091685;28;20044;-59
2023/04/01 00:31:33;;;;;;;7.47;6.47;;;10.30;99.90;;;;;;5091893;28;20588;-59
2023/04/01 00:33:59;;;;;;;10.18;7.28;;;10.40;99.90;;;;;;5091674;28;20387;-59
2023/04/01 00:36:24;;;;;;;7.43;6.53;;;10.40;99.90;;;;;;5091286;28;20035;-59
2023/04/01 00:38:51;;;;;;;9.30;7.50;;;10.40;99.90;;;;;;5091371;28;20036;-59
2023/04/01 00:41:18;;;;;;;9.07;7.25;;;10.40;99.90;;;;;;5091505;28;20029;-59
2023/04/01 00:43:46;;;;;;;8.23;6.75;;;10.20;99.90;;;;;;5091498;28;20036;-59
2023/04/01 00:46:12;;;;;;;7.40;6.38;;;10.20;99.90;;;;;;5091478;28;20383;-59
2023/04/01 00:48:42;;;;;;;6.97;6.10;;;10.30;99.90;;;;;;5091338;28;20044;-61
2023/04/01 00:51:11;;;;;;;7.78;6.97;;;10.40;99.90;;;;;;5092656;28;20107;-59
2023/04/01 00:53:41;;;;;;;7.53;6.70;;;10.50;99.90;;;;;;5095277;28;20052;-59
2023/04/01 00:56:14;;;;;;;9.70;7.95;;;10.40;99.90;;;;;;5095020;28;20055;-59
2023/04/01 00:58:46;;;;;;;10.98;7.47;;;10.30;99.90;;;;;;5094836;28;20566;-60
2023/04/01 01:01:12;;;;;;;10.63;7.68;;;10.30;99.90;;;;;;5093583;28;20477;-59
2023/04/01 01:03:37;;;;;;;10.30;8.07;;;10.30;99.90;;;;;;5094753;28;20046;-59
2023/04/01 01:06:31;;;;;;;12.65;8.20;;;10.30;99.90;;;;;;5094894;28;20078;-59
2023/04/01 01:09:07;;;;;;;11.52;8.07;;;10.30;99.90;;;;;;5094894;28;20500;-59
2023/04/01 01:12:00;;;;;;;8.93;8.02;;;10.30;99.90;;;;;;5094762;28;20052;-59
2023/04/01 01:14:35;;;;;;;9.25;8.13;;;10.30;99.90;;;;;;5094814;28;20491;-59
2023/04/01 01:17:32;;;;;;;11.88;8.40;;;10.40;99.90;;;;;;5094548;28;20060;-59
2023/04/01 01:20:13;;;;;;;10.00;8.35;;;10.40;99.90;;;;;;5094120;28;20043;-59
2023/04/01 01:23:05;;;;;;;9.05;8.05;;;10.40;99.90;;;;;;5094911;28;20498;-59
2023/04/01 01:25:48;;;;;;;10.00;7.63;;;10.20;99.90;;;;;;5094388;28;20036;-59
2023/04/01 01:28:42;;;;;;;11.80;8.20;;;10.40;99.90;;;;;;5094775;28;20040;-59
2023/04/01 01:31:27;;;;;;;10.77;8.52;;;10.20;99.90;;;;;;5094458;28;20113;-59
2023/04/01 01:34:20;;;;;;;13.48;8.13;;;10.30;99.90;;;;;;5093994;28;20493;-59
2023/04/01 01:36:53;;;;;;;9.27;8.32;;;10.40;99.90;;;;;;5092857;28;20048;-59
2023/04/01 01:39:20;;;;;;;9.80;8.25;;;10.30;99.90;;;;;;5094290;28;20028;-59
2023/04/01 01:41:49;;;;;;;8.98;7.95;;;10.40;99.90;;;;;;5094239;28;20065;-59
2023/04/01 01:44:17;;;;;;;10.85;8.32;;;10.40;99.90;;;;;;5093929;28;20501;-59
2023/04/01 01:46:44;;;;;;;12.05;8.95;;;10.20;99.90;;;;;;5093818;28;20049;-59
2023/04/01 01:49:13;;;;;;;11.73;9.00;;;10.30;99.90;;;;;;5093914;28;20079;-59
2023/04/01 01:51:39;;;;;;;11.30;8.80;;;10.40;99.90;;;;;;5093875;28;20478;-59
2023/04/01 01:54:05;;;;;;;9.60;8.45;;;10.40;99.90;;;;;;5093465;28;20048;-59
2023/04/01 01:56:34;;;;;;;13.65;9.38;;;10.30;99.90;;;;;;5093917;28;20044;-59
2023/04/01 01:59:08;;;;;;;11.45;9.23;;;10.30;99.90;;;;;;5093893;28;20044;-59
2023/04/01 02:01:40;;;;;;;13.60;9.18;;;10.40;99.90;;;;;;5093738;28;20429;-59
2023/04/01 02:04:07;;;;;;;11.57;9.88;;;10.40;99.90;;;;;;5092882;28;20036;-59
2023/04/01 02:06:36;;;;;;;10.98;9.57;;;10.30;99.90;;;;;;5093651;28;20047;-59
2023/04/01 02:09:06;;;;;;;12.85;10.13;;;10.30;99.90;;;;;;5093674;28;20036;-59
2023/04/01 02:11:47;;;;;;;14.38;10.30;;;10.40;99.90;;;;;;5093600;28;20389;-59
2023/04/01 02:14:29;;;;;;;12.30;10.00;;;10.30;99.90;;;;;;5093436;28;20040;-59
2023/04/01 02:17:14;;;;;;;13.65;11.02;;;10.40;99.90;;;;;;5093387;28;20043;-59
2023/04/01 02:19:54;;;;;;;13.65;10.32;;;10.30;99.90;;;;;;5093496;28;20043;-59
2023/04/01 02:22:33;;;;;;;11.73;9.52;;;10.30;99.90;;;;;;5093326;28;20044;-59
2023/04/01 02:25:04;;;;;;;12.48;8.93;;;10.40;99.90;;;;;;5093101;28;20035;-59
2023/04/01 02:27:30;;;;;;;12.48;9.07;;;10.20;99.90;;;;;;5093179;28;20055;-59
2023/04/01 02:29:57;;;;;;;10.95;9.77;;;10.40;99.90;;;;;;5091822;28;20390;-59
2023/04/01 02:32:23;;;;;;;13.48;9.48;;;10.40;99.90;;;;;;5093074;28;20512;-59
2023/04/01 02:34:50;;;;;;;11.98;9.63;;;10.50;99.90;;;;;;5093037;28;20052;-59
2023/04/01 02:37:16;;;;;;;12.60;9.77;;;10.20;99.90;;;;;;5092910;28;20032;-59
2023/04/01 02:39:42;;;;;;;11.23;8.85;;;10.40;99.90;;;;;;5092880;28;20040;-59
2023/04/01 02:42:08;;;;;;;11.75;8.80;;;10.40;99.90;;;;;;5092996;28;20037;-59
2023/04/01 02:44:34;;;;;;;13.13;9.68;;;10.40;99.90;;;;;;5093126;28;20056;-59
2023/04/01 02:46:59;;;;;;;10.95;9.52;;;10.30;99.90;;;;;;5093263;28;20475;-59
2023/04/01 02:49:25;;;;;;;14.05;9.57;;;10.20;99.90;;;;;;5092810;28;20562;-59
2023/04/01 02:51:51;;;;;;;12.07;9.10;;;10.30;99.90;;;;;;5092684;28;20406;-59
2023/04/01 02:54:17;;;;;;;11.15;9.10;;;10.30;99.90;;;;;;5092221;28;20537;-59
2023/04/01 02:56:43;;;;;;;12.23;8.90;;;10.30;99.90;;;;;;5092449;28;20044;-58
2023/04/01 02:59:09;;;;;;;13.32;9.77;;;10.30;99.90;;;;;;5092807;28;20040;-59
2023/04/01 03:01:35;;;;;;;11.68;9.30;;;10.20;99.90;;;;;;5092653;28;20090;-59
2023/04/01 03:04:00;;;;;;;13.63;8.82;;;10.40;99.90;;;;;;5092372;28;20493;-59
2023/04/01 03:06:26;;;;;;;10.82;9.15;;;10.20;99.90;;;;;;5092398;28;20112;-59
2023/04/01 03:08:52;;;;;;;12.02;8.90;;;10.10;99.90;;;;;;5092576;28;20039;-59
2023/04/01 03:11:17;;;;;;;12.10;8.95;;;10.20;99.90;;;;;;5092382;28;20490;-59
2023/04/01 03:13:43;;;;;;;12.80;9.40;;;10.40;99.90;;;;;;5091084;28;20040;-59
2023/04/01 03:16:09;;;;;;;13.00;9.77;;;10.30;99.90;;;;;;5092307;28;20044;-59
2023/04/01 03:18:34;;;;;;;12.90;9.93;;;10.30;99.90;;;;;;5092448;28;20036;-59
2023/04/01 03:21:17;;;;;;;14.07;10.20;;;10.00;99.90;;;;;;5092138;28;20035;-59
2023/04/01 03:23:44;;;;;;;19.15;11.40;;;10.30;99.90;;;;;;5092664;28;20024;-59
2023/04/01 03:26:10;;;;;;;16.98;12.30;;;10.20;99.90;;;;;;5092378;28;20047;-59
2023/04/01 03:28:35;;;;;;;17.13;11.93;;;10.10;99.90;;;;;;5092114;28;20508;-59
2023/04/01 03:31:01;;;;;;;13.35;11.43;;;10.00;99.90;;;;;;5092020;28;20043;-59
2023/04/01 03:33:27;;;;;;;14.30;12.30;;;10.10;99.90;;;;;;5092020;28;20040;-58
2023/04/01 03:35:52;;;;;;;16.63;12.32;;;10.00;99.90;;;;;;5091823;28;20051;-59
2023/04/01 03:38:18;;;;;;;14.55;12.18;;;10.10;99.90;;;;;;5092140;28;20036;-59
2023/04/01 03:40:44;;;;;;;19.05;13.15;;;10.10;99.90;;;;;;5092178;28;20494;-59
2023/04/01 03:43:10;;;;;;;17.20;13.60;;;10.20;99.90;;;;;;5091833;28;20055;-59
2023/04/01 03:45:43;;;;;;;18.23;13.25;;;10.20;99.90;;;;;;5091863;28;20119;-59
2023/04/01 03:48:08;;;;;;;18.77;12.95;;;10.10;99.90;;;;;;5091923;28;20032;-58
2023/04/01 03:50:34;;;;;;;21.42;14.40;;;10.20;99.90;;;;;;5092061;28;20036;-59
2023/04/01 03:53:00;;;;;;;18.45;13.82;;;10.10;99.90;;;;;;5091754;28;20051;-58
2023/04/01 03:55:26;;;;;;;16.98;13.43;;;10.00;99.90;;;;;;5091764;28;20478;-59
2023/04/01 03:57:51;;;;;;;22.70;13.95;;;10.20;99.90;;;;;;5090353;28;20040;-59
2023/04/01 04:00:17;;;;;;;16.80;13.73;;;10.00;99.90;;;;;;5091723;28;20040;-61
2023/04/01 04:02:43;;;;;;;17.23;14.27;;;10.00;99.90;;;;;;5091700;28;20044;-58
2023/04/01 04:05:09;;;;;;;21.20;14.05;;;10.00;99.90;;;;;;5092011;28;20043;-59
2023/04/01 04:07:35;;;;;;;19.95;14.90;;;10.10;99.90;;;;;;5092029;28;20044;-59
2023/04/01 04:10:00;;;;;;;18.63;14.70;;;10.20;99.90;;;;;;5091913;28;20090;-59
2023/04/01 04:12:26;;;;;;;19.00;14.10;;;10.00;99.90;;;;;;5092018;28;20070;-59
2023/04/01 04:14:52;;;;;;;20.13;15.02;;;9.90;99.90;;;;;;5091786;28;20044;-59
2023/04/01 04:17:17;;;;;;;21.42;15.10;;;10.20;99.90;;;;;;5092033;28;20881;-59
2023/04/01 04:19:43;;;;;;;19.90;14.70;;;10.10;99.90;;;;;;5091569;28;20036;-60
2023/04/01 04:22:09;;;;;;;18.45;14.82;;;10.20;99.90;;;;;;5091855;28;20044;-59
2023/04/01 04:24:35;;;;;;;18.55;14.60;;;10.10;99.90;;;;;;5090395;28;20406;-59
2023/04/01 04:27:01;;;;;;;19.05;13.95;;;10.20;99.90;;;;;;5094654;28;20390;-58
2023/04/01 04:29:27;;;;;;;18.85;14.27;;;10.10;99.90;;;;;;5095638;28;20040;-59
2023/04/01 04:31:52;;;;;;;18.30;13.57;;;10.10;99.90;;;;;;5095510;28;20044;-59
2023/04/01 04:34:18;;;;;;;20.85;15.38;;;10.10;99.90;;;;;;5095599;28;20040;-59
2023/04/01 04:36:44;;;;;;;17.67;14.50;;;10.20;99.90;;;;;;5095302;28;20044;-59
2023/04/01 04:39:10;;;;;;;20.42;14.93;;;10.10;99.90;;;;;;5095570;28;20067;-59
2023/04/01 04:41:37;;;;;;;19.70;14.20;;;10.20;99.90;;;;;;5095429;28;20086;-59
2023/04/01 04:44:03;;;;;;;21.55;14.18;;;9.90;99.90;;;;;;5095141;28;20483;-59
2023/04/01 04:46:29;;;;;;;17.40;14.30;;;10.10;99.90;;;;;;5095004;28;20058;-59
2023/04/01 04:48:55;;;;;;;20.25;15.15;;;10.10;99.90;;;;;;5095350;28;20513;-59
2023/04/01 04:51:22;;;;;;;19.00;15.38;;;10.20;99.90;;;;;;5094924;28;20420;-59
2023/04/01 04:53:49;;;;;;;19.15;13.85;;;10.00;99.90;;;;;;5094881;28;20398;-59
2023/04/01 04:56:19;;;;;;;20.30;15.02;;;10.10;99.90;;;;;;5095259;28;20079;-58
2023/04/01 04:58:46;;;;;;;20.42;14.73;;;10.20;99.90;;;;;;5095314;28;20042;-59
2023/04/01 05:01:14;;;;;;;21.42;16.50;;;10.00;99.90;;;;;;5094798;28;20032;-58
2023/04/01 05:03:40;;;;;;;21.50;16.03;;;10.20;99.90;;;;;;5095221;28;20409;-59
2023/04/01 05:06:08;;;;;;;19.90;15.52;;;10.00;99.90;;;;;;5095004;28;20032;-58
2023/04/01 05:08:35;;;;;;;20.25;16.00;;;10.00;99.90;;;;;;5094575;28;20086;-59
2023/04/01 05:11:01;;;;;;;21.38;16.23;;;10.10;99.90;;;;;;5092937;28;20052;-59
2023/04/01 05:13:28;;;;;;;18.80;15.70;;;10.10;99.90;;;;;;5094589;28;20054;-59
2023/04/01 05:15:54;;;;;;;19.88;15.90;;;10.20;99.90;;;;;;5094877;28;20052;-59
2023/04/01 05:18:20;;;;;;;19.92;16.48;;;10.10;99.90;;;;;;5094657;28;20092;-59
2023/04/01 05:20:51;;;;;;;20.33;15.40;;;10.30;99.90;;;;;;5094612;28;20036;-59
2023/04/01 05:23:17;;;;;;;20.50;15.50;;;10.10;99.90;;;;;;5094587;28;20088;-59
2023/04/01 05:25:43;;;;;;;22.30;15.77;;;10.20;99.90;;;;;;5094415;28;20039;-59
2023/04/01 05:28:09;;;;;;;22.58;17.02;;;10.10;99.90;;;;;;5107044;28;20040;-59
2023/04/01 05:30:34;;;;;;;20.48;15.65;;;10.00;99.90;;;;;;5114914;28;20036;-59
2023/04/01 05:33:00;;;;;;;18.70;14.43;;;10.20;99.90;;;;;;5114524;28;20397;-59
2023/04/01 05:35:25;;;;;;;18.38;13.70;;;10.10;99.90;;;;;;5114862;28;20042;-60
2023/04/01 05:37:51;;;;;;;17.38;14.02;;;10.10;99.90;;;;;;5113231;28;20040;-59
2023/04/01 05:40:17;;;;;;;17.83;13.60;;;10.20;99.90;;;;;;5114542;28;20107;-59
2023/04/01 05:42:43;;;;;;;18.73;14.00;;;10.00;99.90;;;;;;5114688;28;20047;-59
2023/04/01 05:45:09;;;;;;;17.77;14.50;;;10.10;99.90;;;;;;5114779;28;20040;-58
2023/04/01 05:47:35;;;;;;;20.23;13.80;;;10.00;99.90;;;;;;5114468;28;20124;-59
2023/04/01 05:50:00;;;;;;;16.10;12.88;;;10.00;99.90;;;;;;5114306;28;20074;-58
2023/04/01 05:52:26;;;;;;;17.15;12.88;;;10.20;99.90;;;;;;5114497;28;20040;-58
2023/04/01 05:54:52;;;;;;;17.55;13.48;;;10.20;99.90;;;;;;5114108;28;20058;-59
2023/04/01 05:57:17;;;;;;;17.00;12.85;;;10.20;99.90;;;;;;5114310;28;20482;-58
2023/04/01 05:59:43;;;;;;;16.55;13.45;;;10.10;99.90;;;;;;5114276;28;20228;-58
2023/04/01 06:02:10;;;;;;;15.90;13.20;;;10.20;99.90;;;;;;5114341;28;20119;-58
2023/04/01 06:04:39;;;;;;;15.70;12.18;;;10.00;99.90;;;;;;5114313;28;20469;-59
2023/04/01 06:07:11;;;;;;;17.48;13.02;;;10.20;99.90;;;;;;5114181;28;20463;-58
2023/04/01 06:09:37;;;;;;;17.05;14.30;;;10.00;99.90;;;;;;5114028;27;20492;-58
2023/04/01 06:12:27;;;;;;;16.27;13.15;;;10.00;99.90;;;;;;5114009;28;20035;-58
2023/04/01 06:15:10;;;;;;;16.33;12.60;;;10.00;99.90;;;;;;5114116;28;20481;-59
2023/04/01 06:17:54;;;;;;;16.27;12.95;;;10.30;99.90;;;;;;5113815;28;20401;-58
2023/04/01 06:20:42;;;;;;;16.10;13.32;;;10.30;99.90;;;;;;5113659;28;20506;-58
2023/04/01 06:23:44;;;;;;;17.08;13.40;;;10.10;99.90;;;;;;5114018;28;20453;-59
2023/04/01 06:26:18;;;;;;;18.80;13.88;;;10.20;99.90;;;;;;5113779;28;20043;-59
2023/04/01 06:29:14;;;;;;;19.95;14.98;;;10.30;99.90;;;;;;5113502;28;20412;-59
2023/04/01 06:32:09;;;;;;;19.33;15.25;;;10.20;99.90;;;;;;5113677;28;20044;-59
2023/04/01 06:35:00;;;;;;;23.20;16.67;;;10.10;99.90;;;;;;5113585;28;20094;-58
2023/04/01 06:37:50;;;;;;;22.20;17.50;;;10.30;99.90;;;;;;5113433;28;20036;-59
2023/04/01 06:40:22;;;;;;;;;;;10.40;99.90;;;;;;5113911;28;20047;-59
2023/04/01 06:43:03;;;;;;;21.35;16.58;;;10.30;99.90;;;;;;5113360;28;19942;-59
2023/04/01 06:45:36;;;;;;;21.42;16.90;;;10.20;99.90;;;;;;5112167;28;20062;-59
2023/04/01 06:48:27;;;;;;;22.60;17.50;;;10.20;99.90;;;;;;5112976;28;20531;-58
2023/04/01 06:51:22;;;;;;;;;;;10.30;99.90;;;;;;5113507;28;20486;-59
2023/04/01 06:54:11;;;;;;;21.55;16.80;;;10.40;99.90;;;;;;5050135;28;19921;-58
2023/04/01 06:56:41;;;;;;;21.70;16.85;;;10.40;99.90;;;;;;5050318;28;20041;-59
2023/04/01 06:59:13;;;;;;;27.65;18.10;;;10.30;99.90;;;;;;5050254;28;20156;-59
2023/04/01 07:01:47;;;;;;;21.65;17.80;;;10.40;99.90;;;;;;5050224;28;20387;-59
2023/04/01 07:04:21;;;;;;;23.80;18.50;;;10.50;99.90;;;;;;5050136;28;20480;-59
2023/04/01 07:06:55;;;;;;;21.42;17.67;;;10.40;99.90;;;;;;5033591;28;20052;-59
2023/04/01 07:09:26;;;;;;;22.02;18.00;;;10.50;99.90;;;;;;5050085;28;20523;-59
2023/04/01 07:11:56;;;;;;;23.08;18.33;;;10.30;99.90;;;;;;5049968;28;20407;-59
2023/04/01 07:14:35;;;;;;;24.48;18.40;;;10.50;99.90;;;;;;5049883;28;20541;-59
2023/04/01 07:17:27;;;;;;;23.77;18.67;;;10.60;99.90;;;;;;5049792;28;20124;-59
2023/04/01 07:19:53;;;;;;;22.60;17.77;;;10.40;99.90;;;;;;5049856;28;20132;-59
2023/04/01 07:22:31;;;;;;;22.05;17.17;;;10.60;99.90;;;;;;5033034;28;20044;-59
2023/04/01 07:25:01;;;;;;;24.90;18.20;;;10.50;99.90;;;;;;5049812;28;20040;-59
2023/04/01 07:27:27;;;;;;;23.23;18.25;;;10.50;99.90;;;;;;5049936;28;20179;-60
2023/04/01 07:29:56;;;;;;;22.73;17.60;;;10.40;99.90;;;;;;5073149;28;20130;-59
2023/04/01 07:32:43;;;;;;;23.73;17.33;;;10.60;99.90;;;;;;5112511;28;20397;-59
2023/04/01 07:35:17;;;;;;;25.95;19.05;;;10.50;99.90;;;;;;5112461;28;20042;-58
2023/04/01 07:38:07;;;;;;;23.23;18.58;;;10.60;99.90;;;;;;5112792;28;20359;-58
2023/04/01 07:40:36;;;;;;;22.63;18.50;;;10.40;99.90;;;;;;5112664;28;20119;-58
2023/04/01 07:43:29;;;;;;;20.75;17.20;;;10.50;99.90;;;;;;5112389;28;20039;-59
2023/04/01 07:46:00;;;;;;;20.77;17.02;;;10.60;99.90;;;;;;5112610;28;20066;-59
2023/04/01 07:48:36;;;;;;;21.00;17.63;;;10.60;99.90;;;;;;5110980;28;20036;-58
2023/04/01 07:51:20;;;;;;;21.05;15.90;;;10.60;99.90;;;;;;5112401;28;20052;-58
2023/04/01 07:53:56;;;;;;;18.27;16.25;;;10.50;99.90;;;;;;5112265;28;20560;-58
2023/04/01 07:56:34;;;;;;;18.60;16.25;;;10.60;99.90;;;;;;5112106;28;20402;-59
2023/04/01 07:59:06;;;;;;;17.92;15.70;;;10.60;99.90;;;;;;5112365;28;20110;-58
2023/04/01 08:02:05;;;;;;;21.60;15.52;;;10.70;99.90;;;;;;5114441;28;20118;-59
2023/04/01 08:05:00;;;;;;;20.30;15.85;;;10.70;99.90;;;;;;5115464;28;20192;-59
2023/04/01 08:07:39;;;;;;;22.20;16.48;;;10.70;99.90;;;;;;5033575;28;20060;-59
2023/04/01 08:10:24;;;;;;;19.23;17.13;;;10.70;99.90;;;;;;5017099;28;20041;-58
2023/04/01 08:13:08;;;;;;;18.58;16.35;;;10.70;99.90;;;;;;5033336;28;20049;-59
2023/04/01 08:15:42;;;;;;;19.35;16.20;;;10.60;99.90;;;;;;5033342;28;20141;-59
2023/04/01 08:18:12;;;;;;;21.08;16.88;;;10.80;99.90;;;;;;5033349;28;20163;-59
2023/04/01 08:20:49;;;;;;;24.67;19.35;;;10.70;99.90;;;;;;5033451;28;20101;-59
2023/04/01 08:23:38;;;;;;;20.30;16.88;;;10.70;99.90;;;;;;5033304;28;20059;-59
2023/04/01 08:26:16;;;;;;;21.40;16.35;;;10.90;99.90;;;;;;5033284;28;20057;-59
2023/04/01 08:29:03;;;;;;;18.63;15.75;;;10.80;99.90;;;;;;5033190;28;20628;-59
2023/04/01 08:31:39;;;;;;;18.02;15.25;;;11.00;99.90;;;;;;5033154;28;20056;-59
2023/04/01 08:34:13;;;;;;;16.85;14.18;;;11.10;99.90;;;;;;5033060;28;20053;-59
2023/04/01 08:36:43;;;;;;;15.98;13.13;;;11.00;99.90;;;;;;5033162;28;20064;-59
2023/04/01 08:39:47;;;;;;;17.80;13.93;;;11.10;99.90;;;;;;5032979;28;20045;-59
2023/04/01 08:42:50;;;;;;;15.23;12.82;;;11.20;99.90;;;;;;4974067;28;20050;-59
2023/04/01 08:45:30;;;;;;;14.20;12.70;;;11.30;99.90;;;;;;5013037;28;20084;-59
2023/04/01 08:48:23;;;;;;;13.90;11.88;;;11.30;99.90;;;;;;5012933;28;20096;-59
2023/04/01 08:51:14;;;;;;;16.40;13.48;;;11.40;99.90;;;;;;5012869;28;20046;-59
2023/04/01 08:53:46;;;;;;;15.85;13.20;;;11.60;99.90;;;;;;4916157;29;20099;-58
2023/04/01 08:56:25;;;;;;;15.10;13.02;;;11.60;99.90;;;;;;4916125;29;20052;-59
2023/04/01 08:59:05;;;;;;;15.45;13.63;;;11.60;99.90;;;;;;4916316;29;20131;-59
2023/04/01 09:01:57;;;;;;;13.07;11.27;;;11.70;99.90;;;;;;4916299;29;20128;-58
2023/04/01 09:04:53;;;;;;;9.10;7.50;;;11.50;99.90;;;;;;4915788;29;20052;-59
2023/04/01 09:07:35;;;;;;;7.75;6.65;;;11.30;99.90;;;;;;4916213;29;20051;-59
2023/04/01 09:10:28;;;;;;;8.68;6.47;;;11.30;99.90;;;;;;4916130;29;20115;-58
2023/04/01 09:13:07;;;;;;;7.60;6.68;;;11.20;99.90;;;;;;4915989;29;20391;-59
2023/04/01 09:15:54;;;;;;;8.60;6.07;;;11.20;99.90;;;;;;4909775;29;20094;-59
2023/04/01 09:18:31;;;;;;;10.82;6.85;;;10.90;99.90;;;;;;4954075;29;20393;-59
2023/04/01 09:21:32;;;;;;;7.60;6.10;;;10.90;99.90;;;;;;4960728;28;20199;-59
2023/04/01 09:24:25;;;;;;;6.50;5.50;;;10.70;99.90;;;;;;4919069;29;20043;-58
2023/04/01 09:27:14;;;;;;;6.40;4.75;;;10.70;99.90;;;;;;4934741;29;20056;-58
2023/04/01 09:29:45;;;;;;;5.15;4.05;;;10.70;99.90;;;;;;4941988;28;20099;-59
2023/04/01 09:32:41;;;;;;;4.68;3.85;;;10.60;99.90;;;;;;5031925;28;20091;-58
2023/04/01 09:35:16;;;;;;;5.50;3.42;;;10.40;99.90;;;;;;5032249;28;20118;-58
2023/04/01 09:38:12;;;;;;;4.50;3.35;;;10.40;99.90;;;;;;5031908;28;20431;-59
2023/04/01 09:40:53;;;;;;;4.35;3.33;;;10.40;99.90;;;;;;5031897;28;20145;-58
2023/04/01 09:43:33;;;;;;;3.35;2.90;;;10.50;99.90;;;;;;5031726;28;20567;-58
2023/04/01 09:46:38;;;;;;;4.55;3.50;;;10.40;99.90;;;;;;5031694;28;20056;-58
2023/04/01 09:49:55;;;;;;;3.67;2.90;;;10.50;99.90;;;;;;4934468;29;20131;-58
2023/04/01 09:52:41;;;;;;;4.15;2.90;;;10.40;99.90;;;;;;4915331;29;20091;-59
2023/04/01 09:55:15;;;;;;;5.07;3.15;;;10.50;99.90;;;;;;4914969;29;20491;-59
2023/04/01 09:58:10;;;;;;;4.28;2.97;;;10.50;99.90;;;;;;4945162;28;20069;-58
2023/04/01 10:00:50;;;;;;;3.88;2.88;;;10.50;99.90;;;;;;4896386;29;20049;-58
2023/04/01 10:03:40;;;;;;;5.45;3.58;;;10.50;99.90;;;;;;4896346;29;20531;-58
2023/04/01 10:06:36;;;;;;;3.85;3.33;;;10.50;99.90;;;;;;4911937;29;20055;-58
2023/04/01 10:09:28;;;;;;;3.08;2.78;;;10.40;99.90;;;;;;4896425;29;20778;-58
2023/04/01 10:12:19;;;;;;;6.88;3.90;;;10.30;99.90;;;;;;4896110;29;20048;-58
2023/04/01 10:15:00;;;;;;;3.53;3.22;;;10.40;99.90;;;;;;4896144;29;20144;-59
2023/04/01 10:17:37;;;;;;;5.18;3.38;;;10.40;99.90;;;;;;4896127;29;20436;-59
2023/04/01 10:20:13;;;;;;;3.83;3.00;;;10.40;99.90;;;;;;4895948;29;20463;-58
2023/04/01 10:22:44;;;;;;;3.88;2.63;;;10.30;99.90;;;;;;4896134;29;20586;-58
2023/04/01 10:25:42;;;;;;;3.97;2.80;;;10.40;99.90;;;;;;4909573;29;20086;-59
2023/04/01 10:28:44;;;;;;;3.60;2.40;;;10.30;99.90;;;;;;4961206;28;20081;-58
2023/04/01 10:32:04;;;;;;;3.03;2.42;;;10.30;99.90;;;;;;5011149;28;20160;-58
2023/04/01 10:34:54;;;;;;;2.50;2.30;;;10.20;99.90;;;;;;4991410;28;20504;-62
2023/04/01 10:37:32;;;;;;;;;;;10.20;99.90;;;;;;5016651;28;20057;-59
2023/04/01 10:39:58;;;;;;;4.22;2.28;;;10.10;99.90;;;;;;5030783;28;20042;-58
2023/04/01 10:42:50;;;;;;;3.60;2.08;;;10.10;99.90;;;;;;5030760;28;20480;-58
2023/04/01 10:45:35;;;;;;;4.65;2.20;;;10.20;99.90;;;;;;5030636;28;20049;-59
2023/04/01 10:48:25;;;;;;;2.92;2.40;;;10.10;99.90;;;;;;5030713;28;20041;-59
2023/04/01 10:51:14;;;;;;;3.67;1.77;;;10.20;99.90;;;;;;5030412;28;20484;-58
2023/04/01 10:53:40;;;;;;;2.50;1.85;;;10.10;99.90;;;;;;5030554;28;20096;-58
2023/04/01 10:56:42;;;;;;;3.45;1.95;;;10.20;99.90;;;;;;5030036;28;20061;-59
2023/04/01 10:59:25;;;;;;;4.32;2.28;;;10.20;99.90;;;;;;5030288;28;20492;-59
2023/04/01 11:02:12;;;;;;;2.38;2.08;;;10.10;99.90;;;;;;5030346;28;20037;-58
2023/04/01 11:04:56;;;;;;;2.97;2.40;;;10.10;99.90;;;;;;5059025;28;20043;-58
2023/04/01 11:07:43;;;;;;;2.92;2.20;;;10.10;99.90;;;;;;5112837;28;20110;-58
2023/04/01 11:10:39;;;;;;;2.60;2.40;;;10.00;99.90;;;;;;5113093;28;20366;-58
2023/04/01 11:13:36;;;;;;;2.30;2.10;;;10.10;99.90;;;;;;5112937;28;20044;-58
2023/04/01 11:16:20;;;;;;;4.70;2.75;;;10.00;99.90;;;;;;5112773;28;20393;-58
2023/04/01 11:19:08;;;;;;;3.00;2.70;;;10.00;99.90;;;;;;5112744;28;20035;-59
2023/04/01 11:22:01;;;;;;;3.72;2.88;;;10.00;99.90;;;;;;5112754;28;20038;-58
2023/04/01 11:25:00;;;;;;;4.10;2.85;;;10.00;99.90;;;;;;5112593;28;20054;-59
2023/04/01 11:27:51;;;;;;;2.85;2.42;;;9.90;99.90;;;;;;5112993;28;20043;-58
2023/04/01 11:30:53;;;;;;;4.55;2.85;;;10.00;99.90;;;;;;5112591;28;20055;-59
2023/04/01 11:33:38;;;;;;;2.80;2.22;;;9.80;99.90;;;;;;5112708;28;20050;-59
2023/04/01 11:36:09;;;;;;;3.53;2.15;;;9.90;99.90;;;;;;5111767;28;20093;-58
2023/04/01 11:38:58;;;;;;;2.45;2.20;;;10.00;99.90;;;;;;5112388;28;20079;-59
2023/04/01 11:41:45;;;;;;;3.10;2.33;;;10.00;99.90;;;;;;5029646;28;20516;-58
2023/04/01 11:44:20;;;;;;;3.47;2.20;;;10.10;99.90;;;;;;5029604;28;20048;-59
2023/04/01 11:47:02;;;;;;;2.88;1.98;;;10.10;99.90;;;;;;5029804;28;20128;-58
2023/04/01 11:49:55;;;;;;;2.33;1.90;;;10.20;99.90;;;;;;5029688;28;20041;-58
2023/04/01 11:52:34;;;;;;;3.22;2.20;;;10.30;99.90;;;;;;5029534;28;20111;-58
2023/04/01 11:55:18;;;;;;;2.20;1.60;;;10.30;99.90;;;;;;5029575;28;20048;-59
2023/04/01 11:58:06;;;;;;;2.50;1.55;;;10.40;99.90;;;;;;5029241;28;20049;-59
2023/04/01 12:00:52;;;;;;;3.53;1.77;;;10.40;99.90;;;;;;5029592;28;20052;-59
2023/04/01 12:03:36;;;;;;;2.42;1.77;;;10.40;99.90;;;;;;5029625;28;20044;-58
2023/04/01 12:06:11;;;;;;;2.53;1.85;;;10.50;99.90;;;;;;5029559;28;20046;-59
2023/04/01 12:08:42;;;;;;;2.05;1.60;;;10.50;99.90;;;;;;5029565;28;20493;-59
2023/04/01 12:11:20;;;;;;;2.17;1.50;;;10.40;99.90;;;;;;5029393;28;20048;-59
2023/04/01 12:14:11;;;;;;;3.63;1.98;;;10.40;99.90;;;;;;5029515;28;20041;-59
2023/04/01 12:16:39;;;;;;;;;;;10.30;99.90;;;;;;5029646;28;20041;-59
2023/04/01 12:19:14;;;;;;;4.05;2.00;;;10.40;99.90;;;;;;5090661;28;19915;-59
2023/04/01 12:21:52;;;;;;;1.90;1.70;;;10.30;99.90;;;;;;5111977;28;20056;-59
2023/04/01 12:24:47;;;;;;;2.58;1.85;;;10.20;99.90;;;;;;5111983;28;20047;-59
2023/04/01 12:27:27;;;;;;;3.33;1.85;;;10.20;99.90;;;;;;5111831;28;20500;-58
2023/04/01 12:30:05;;;;;;;;;;;10.20;99.90;;;;;;5112197;28;20477;-58
2023/04/01 12:33:08;;;;;;;2.80;2.10;;;10.30;99.90;;;;;;5111944;28;19916;-59
2023/04/01 12:35:58;;;;;;;2.35;2.03;;;10.30;99.90;;;;;;5112008;28;20069;-59
2023/04/01 12:38:49;;;;;;;3.53;2.10;;;10.30;99.90;;;;;;5111653;28;20493;-60
2023/04/01 12:41:24;;;;;;;4.57;2.00;;;10.40;99.90;;;;;;5111978;28;20081;-58
2023/04/01 12:44:28;;;;;;;1.83;1.60;;;10.40;99.90;;;;;;5111848;28;20044;-59
2023/04/01 12:47:22;;;;;;;1.95;1.75;;;10.30;99.90;;;;;;5030465;28;20474;-59
2023/04/01 12:50:10;;;;;;;2.30;1.80;;;10.30;99.90;;;;;;5031020;28;20045;-59
2023/04/01 12:52:38;;;;;;;2.45;1.80;;;10.10;99.90;;;;;;5032721;28;20407;-59
2023/04/01 12:55:24;;;;;;;2.20;2.00;;;10.30;99.90;;;;;;5032687;28;20041;-59
2023/04/01 12:58:03;;;;;;;2.15;1.95;;;10.20;99.90;;;;;;5032592;28;20085;-59
2023/04/01 13:01:06;;;;;;;2.08;1.83;;;10.20;99.90;;;;;;5032647;28;20116;-59
2023/04/01 13:03:50;;;;;;;3.17;2.00;;;10.30;99.90;;;;;;5032599;28;20038;-59
2023/04/01 13:06:41;;;;;;;1.88;1.73;;;10.20;99.90;;;;;;5032558;28;20087;-59
2023/04/01 13:09:06;;;;;;;4.40;1.90;;;10.20;99.90;;;;;;5015780;28;20566;-59
2023/04/01 13:12:14;;;;;;;2.33;1.88;;;10.30;99.90;;;;;;5032198;28;20128;-58
2023/04/01 13:15:07;;;;;;;1.85;1.75;;;10.20;99.90;;;;;;5032260;28;20053;-58
2023/04/01 13:17:56;;;;;;;1.63;1.52;;;10.20;99.90;;;;;;5069540;28;20074;-59
2023/04/01 13:20:24;;;;;;;2.55;1.95;;;10.30;99.90;;;;;;5114950;28;20042;-58
2023/04/01 13:23:27;;;;;;;2.15;1.95;;;10.30;99.90;;;;;;5115033;28;20043;-59
2023/04/01 13:26:05;;;;;;;1.85;1.52;;;10.20;99.90;;;;;;5115014;28;20119;-58
2023/04/01 13:28:46;;;;;;;3.35;1.98;;;10.20;99.90;;;;;;5114817;28;20462;-59